createdAt,value
2023-05-09T00:03:53.774Z,4.29
2023-05-09T00:08:56.668Z,4.05
2023-05-09T00:13:59.453Z,3.86
2023-05-09T00:19:03.536Z,3.68
2023-05-09T00:24:06.648Z,3.53
2023-05-09T00:29:09.443Z,3.40
2023-05-09T00:34:12.291Z,3.27
2023-05-09T00:39:15.197Z,3.15
2023-05-09T00:44:18.156Z,3.04
2023-05-09T00:49:20.971Z,4.75
2023-05-09T00:54:23.842Z,9.10
2023-05-09T00:59:27.475Z,8.68
2023-05-09T01:04:30.562Z,6.72
2023-05-09T01:09:58.436Z,5.70
2023-05-09T01:15:08.851Z,4.93
2023-05-09T01:20:47.607Z,4.33
2023-05-09T01:26:04.625Z,6.26
2023-05-09T01:31:09.705Z,9.08
2023-05-09T01:36:18.138Z,6.93
2023-05-09T01:41:23.439Z,5.53
2023-05-09T01:46:27.653Z,4.70
2023-05-09T01:51:31.840Z,4.07
2023-05-09T01:56:36.532Z,3.52
2023-05-09T02:01:39.429Z,4.73
2023-05-09T02:06:44.846Z,8.90
2023-05-09T02:11:47.805Z,8.30
2023-05-09T02:16:51.491Z,6.15
2023-05-09T02:21:54.333Z,5.05
2023-05-09T02:26:57.676Z,4.29
2023-05-09T02:32:01.494Z,5.43
2023-05-09T02:37:05.270Z,9.05
2023-05-09T02:42:18.746Z,7.37
2023-05-09T02:47:21.972Z,5.53
2023-05-09T02:52:24.918Z,4.51
2023-05-09T02:57:27.819Z,5.51
2023-05-09T03:02:31.042Z,8.89
2023-05-09T03:07:34.390Z,7.00
2023-05-09T03:12:38.725Z,5.32
2023-05-09T03:17:41.872Z,4.44
2023-05-09T03:22:44.787Z,3.87
2023-05-09T03:27:47.572Z,3.42
2023-05-09T03:32:50.465Z,3.06
2023-05-09T03:37:53.324Z,2.80
2023-05-09T03:42:56.196Z,2.62
2023-05-09T03:47:59.427Z,4.36
2023-05-09T03:53:02.551Z,8.78
2023-05-09T03:58:05.391Z,8.76
2023-05-09T04:03:08.437Z,6.84
2023-05-09T04:08:11.570Z,5.93
2023-05-09T04:13:14.424Z,5.43
2023-05-09T04:18:17.369Z,5.10
2023-05-09T04:23:20.180Z,4.89
2023-05-09T04:28:23.106Z,4.78
2023-05-09T04:33:25.990Z,4.77
2023-05-09T04:38:28.776Z,4.84
2023-05-09T04:43:32.724Z,4.97
2023-05-09T04:48:35.976Z,5.17
2023-05-09T04:53:38.968Z,5.41
2023-05-09T04:58:41.792Z,5.68
2023-05-09T05:03:46.309Z,6.02
2023-05-09T05:08:49.136Z,6.38
2023-05-09T05:13:52.069Z,6.74
2023-05-09T05:18:54.900Z,7.11
2023-05-09T05:23:57.700Z,7.45
2023-05-09T05:29:00.978Z,7.79
2023-05-09T05:34:03.669Z,8.14
2023-05-09T05:39:06.561Z,8.50
2023-05-09T05:44:09.546Z,8.84
2023-05-09T05:49:12.395Z,9.18
2023-05-09T05:54:15.252Z,9.52
2023-05-09T05:59:18.070Z,9.87
2023-05-09T06:04:21.440Z,10.24
2023-05-09T06:09:24.310Z,10.58
2023-05-09T06:14:27.212Z,10.91
2023-05-09T06:19:30.049Z,11.23
2023-05-09T06:24:36.212Z,11.58
2023-05-09T06:29:39.512Z,11.89
2023-05-09T06:34:42.397Z,12.20
2023-05-09T06:39:46.274Z,12.50
2023-05-09T06:44:49.187Z,12.79
2023-05-09T06:49:52.122Z,13.05
2023-05-09T06:54:55.150Z,13.34
2023-05-09T06:59:57.844Z,13.62
2023-05-09T07:05:00.813Z,13.92
2023-05-09T07:10:11.440Z,14.17
2023-05-09T07:15:22.941Z,14.48
2023-05-09T07:20:36.400Z,14.75
2023-05-09T07:25:39.746Z,14.99
2023-05-09T07:30:43.788Z,15.17
2023-05-09T07:35:46.752Z,15.29
2023-05-09T07:40:49.484Z,15.39
2023-05-09T07:45:52.311Z,15.47
2023-05-09T07:50:55.159Z,15.61
2023-05-09T07:55:59.594Z,15.72
2023-05-09T08:01:02.711Z,15.85
2023-05-09T08:06:05.596Z,16.03
2023-05-09T08:11:08.412Z,16.12
2023-05-09T08:16:11.780Z,16.20
2023-05-09T08:21:14.618Z,16.32
2023-05-09T08:26:17.348Z,16.39
2023-05-09T08:31:20.357Z,16.40
2023-05-09T08:36:23.484Z,16.54
2023-05-09T08:41:29.580Z,16.73
2023-05-09T08:46:37.164Z,16.95
2023-05-09T08:51:41.051Z,17.21
2023-05-09T08:56:43.941Z,17.27
2023-05-09T09:01:48.025Z,17.28
2023-05-09T09:06:52.204Z,17.35
2023-05-09T09:11:56.983Z,17.40
2023-05-09T09:17:01.196Z,17.55
2023-05-09T09:22:05.076Z,17.65
2023-05-09T09:27:08.525Z,17.74
2023-05-09T09:32:11.749Z,17.72
2023-05-09T09:37:24.311Z,17.84
2023-05-09T09:42:27.145Z,17.99
2023-05-09T09:47:33.274Z,18.07
2023-05-09T09:52:36.730Z,18.23
2023-05-09T09:57:41.808Z,18.38
2023-05-09T10:02:54.930Z,18.45
2023-05-09T10:07:59.419Z,18.56
2023-05-09T10:13:09.678Z,18.60
2023-05-09T10:18:18.502Z,18.57
2023-05-09T10:23:23.612Z,18.62
2023-05-09T10:28:32.097Z,18.66
2023-05-09T10:33:42.749Z,18.73
2023-05-09T10:38:47.387Z,18.79
2023-05-09T10:43:50.425Z,18.83
2023-05-09T10:48:55.225Z,18.92
2023-05-09T10:53:58.851Z,19.00
2023-05-09T10:59:02.347Z,19.06
2023-05-09T11:04:13.152Z,19.15
2023-05-09T11:09:27.108Z,19.21
2023-05-09T11:14:42.553Z,19.38
2023-05-09T11:19:45.574Z,19.47
2023-05-09T11:24:50.977Z,19.52
2023-05-09T11:29:59.621Z,19.63
2023-05-09T11:35:17.889Z,19.67
2023-05-09T11:40:22.960Z,19.75
2023-05-09T11:45:28.691Z,19.83
2023-05-09T11:50:31.697Z,19.85
2023-05-09T11:55:38.190Z,19.91
2023-05-09T12:00:47.707Z,20.04
2023-05-09T12:05:51.098Z,20.15
2023-05-09T12:10:54.071Z,20.20
2023-05-09T12:16:02.691Z,20.29
2023-05-09T12:21:07.228Z,20.35
2023-05-09T12:26:11.077Z,20.37
2023-05-09T12:31:14.706Z,20.45
2023-05-09T12:36:18.840Z,20.53
2023-05-09T12:46:33.837Z,20.77
2023-05-09T12:51:37.917Z,20.95
2023-05-09T12:56:41.027Z,21.05
2023-05-09T13:01:44.520Z,21.12
2023-05-09T13:06:52.384Z,21.22
2023-05-09T13:11:55.468Z,21.37
2023-05-09T13:16:58.456Z,21.51
2023-05-09T13:22:02.097Z,21.63
2023-05-09T13:27:05.803Z,21.64
2023-05-09T13:32:08.895Z,21.68
2023-05-09T13:37:11.770Z,21.71
2023-05-09T13:42:14.600Z,21.79
2023-05-09T13:47:17.467Z,21.78
2023-05-09T13:52:20.314Z,21.78
2023-05-09T13:57:23.154Z,22.02
2023-05-09T14:02:26.133Z,22.50
2023-05-09T14:07:29.370Z,22.94
2023-05-09T14:12:32.796Z,23.31
2023-05-09T14:17:35.888Z,23.63
2023-05-09T14:22:38.806Z,23.81
2023-05-09T14:27:42.096Z,24.02
2023-05-09T14:32:45.498Z,24.32
2023-05-09T14:37:48.377Z,24.64
2023-05-09T14:42:51.333Z,24.78
2023-05-09T14:47:54.251Z,24.92
2023-05-09T14:52:57.415Z,25.28
2023-05-09T14:58:00.255Z,25.59
2023-05-09T15:03:03.267Z,26.09
2023-05-09T15:08:07.133Z,26.48
2023-05-09T15:13:11.473Z,26.70
2023-05-09T15:18:16.561Z,26.96
2023-05-09T15:23:19.460Z,27.27
2023-05-09T15:28:22.459Z,27.56
2023-05-09T15:33:25.583Z,28.03
2023-05-09T15:38:28.643Z,28.50
2023-05-09T15:43:31.509Z,28.96
2023-05-09T15:48:34.307Z,29.25
2023-05-09T15:53:37.195Z,29.62
2023-05-09T15:58:40.478Z,29.98
2023-05-09T16:03:43.522Z,30.12
2023-05-09T16:08:46.597Z,30.25
2023-05-09T16:13:49.528Z,30.37
2023-05-09T16:18:52.720Z,30.49
2023-05-09T16:23:58.002Z,30.65
2023-05-09T16:29:02.150Z,31.04
2023-05-09T16:34:05.020Z,31.36
2023-05-09T16:39:07.852Z,31.48
2023-05-09T16:44:10.876Z,31.44
2023-05-09T16:49:17.743Z,31.37
2023-05-09T16:54:21.517Z,31.50
2023-05-09T16:59:24.343Z,31.22
2023-05-09T17:04:27.726Z,30.93
2023-05-09T17:09:30.622Z,30.63
2023-05-09T17:14:33.479Z,30.38
2023-05-09T17:19:36.823Z,30.05
2023-05-09T17:24:39.663Z,29.58
2023-05-09T17:29:42.527Z,28.62
2023-05-09T17:34:45.329Z,27.56
2023-05-09T17:39:48.156Z,26.38
2023-05-09T17:44:51.096Z,24.59
2023-05-09T17:49:53.909Z,22.87
2023-05-09T17:54:56.811Z,21.48
2023-05-09T18:00:00.499Z,20.29
2023-05-09T18:05:03.424Z,19.34
2023-05-09T18:10:07.955Z,18.69
2023-05-09T18:15:11.201Z,17.96
2023-05-09T18:20:14.311Z,17.20
2023-05-09T18:25:17.437Z,16.50
2023-05-09T18:30:21.995Z,15.81
2023-05-09T18:35:25.028Z,15.21
2023-05-09T18:40:28.540Z,14.63
2023-05-09T18:45:31.330Z,14.11
2023-05-09T18:50:34.305Z,13.63
2023-05-09T18:55:37.148Z,13.22
2023-05-09T19:00:40.266Z,12.83
2023-05-09T19:05:44.087Z,12.47
2023-05-09T19:10:46.895Z,12.15
2023-05-09T19:15:50.285Z,11.83
2023-05-09T19:20:53.116Z,11.56
2023-05-09T19:25:55.988Z,11.31
2023-05-09T19:30:59.146Z,11.07
2023-05-09T19:36:01.927Z,10.83
2023-05-09T19:41:04.806Z,10.62
2023-05-09T19:46:07.756Z,10.40
2023-05-09T19:51:12.576Z,10.19
2023-05-09T19:56:15.752Z,9.97
2023-05-09T20:01:19.536Z,9.74
2023-05-09T20:11:42.893Z,9.31
2023-05-09T20:16:45.798Z,9.13
2023-05-09T20:21:48.625Z,8.94
2023-05-09T20:26:51.557Z,8.73
2023-05-09T20:31:54.373Z,8.52
2023-05-09T20:36:57.095Z,8.33
2023-05-09T20:42:02.529Z,8.17
2023-05-09T20:47:05.975Z,8.02
2023-05-09T20:52:08.783Z,7.89
2023-05-09T20:57:11.523Z,7.75
2023-05-09T21:02:14.333Z,7.60
2023-05-09T21:07:20.058Z,7.45
2023-05-09T21:12:23.135Z,7.28
2023-05-09T21:17:26.232Z,7.12
2023-05-09T21:22:29.221Z,6.96
2023-05-09T21:27:32.007Z,6.82
2023-05-09T21:32:34.836Z,6.67
2023-05-09T21:37:37.672Z,6.54
2023-05-09T21:42:41.238Z,6.41
2023-05-09T21:47:44.077Z,6.28
2023-05-09T21:52:47.037Z,6.16
2023-05-09T21:57:49.802Z,6.07
2023-05-09T22:02:52.664Z,5.98
2023-05-09T22:07:55.660Z,5.90
2023-05-09T22:12:58.477Z,5.81
2023-05-09T22:18:01.464Z,5.72
2023-05-09T22:23:04.350Z,5.64
2023-05-09T22:28:07.206Z,5.56
2023-05-09T22:33:10.014Z,5.47
2023-05-09T22:38:12.839Z,5.41
2023-05-09T22:43:15.671Z,5.35
2023-05-09T22:48:18.513Z,5.27
2023-05-09T22:53:21.342Z,5.20
2023-05-09T22:58:24.222Z,5.13
2023-05-09T23:03:27.242Z,5.07
2023-05-09T23:08:31.985Z,5.01
2023-05-09T23:13:34.802Z,4.96
2023-05-09T23:18:37.642Z,4.88
2023-05-09T23:23:40.607Z,4.78
2023-05-09T23:28:43.399Z,4.66
2023-05-09T23:33:46.338Z,4.55
2023-05-09T23:38:49.175Z,4.43
2023-05-09T23:43:52.110Z,5.99
2023-05-09T23:48:55.754Z,10.21
2023-05-09T23:53:58.585Z,9.76
2023-05-09T23:59:01.413Z,7.90
